Evanston Regional Hospital, WY

4:44 PM MDT on March 31, 2015 (GMT -0600)
Evanston-Uinta County Burns | | Change Station
CLOSE
Current Station
Airport
Location: Evanston,
Elevation: 7142 ft
Nearby Weather Stations

Elev 7142 ft 41.27 °N, 111.03 °W | Updated 51 minutes ago

Clear
Clear
65 °F
Feels Like 65 °F
N
26
Wind Variable Wind from WSW
Gusts 38 mph

Today
High -- | Low -- °F
--% Chance of Precip.
Yesterday
High -- | Low -- °F
Precip. -- in
7:09 AM 7:47 PM
Waxing Gibbous, 89% visible
Pressure 29.73 in
Visibility 10.0 miles
Clouds Clear
Dew Point 14 °F
Humidity 14%
Rainfall 0.00 in
Snow Depth Not available.
UV 6 out of 12
Pollen 8.90 out of 12
Air Quality Not available.
Flu Activity Not available.
METAR KEVW 312153Z AUTO 24023G33KT 10SM CLR 18/M10 A2994 RMK AO2 PK WND 24036/2104 SLP068 T01831100

More Conditions Fewer Conditions

Pressure 29.73 in
Visibility 10.0 miles
Clouds Clear
Dew Point 14 °F
Humidity 14%
Rainfall 0.00 in
Snow Depth Not available.
UV 6 out of 12
Pollen 8.90 out of 12
Air Quality Not available.
Flu Activity Not available.
METAR KEVW 312153Z AUTO 24023G33KT 10SM CLR 18/M10 A2994 RMK AO2 PK WND 24036/2104 SLP068 T01831100

More Conditions Fewer Conditions

10-Day Weather Forecast

Almanac

Astronomy

Mar. 31, 2015 Rise Set
Actual Time
Civil Twilight
Nautical Twilight
Astronomical Twilight
Moon
Length of Visible Light
Length of Day
Tomorrow will be .
, % of the Moon is Illuminated

Today's Extremes

State Highs State Lows

Community

WunderPhotos

Upload Photos

1,809,864 photos uploaded!

WunderBlogs® & News

Nearby

Air Quality

  Air Quality AQ Index Pollutant
Not available.

Snow Depth

Station Depth Elevation

Earthquake Activity

City Distance Mag. Time & Date
Minimum magnitude displayed is 2.5.

Coastal Water Temperatures

Place Temperature

Stations

Nearby Weather Stations

Station Location Temp. Windchill Dew Point Humidity Wind Precip. Elev Updated Type